createdAt,value
2022-09-04T00:00:58.912Z,18.59
2022-09-04T00:03:15.625Z,18.56
2022-09-04T00:05:23.473Z,18.54
2022-09-04T00:07:29.943Z,18.54
2022-09-04T00:09:38.821Z,18.52
2022-09-04T00:11:49.109Z,18.44
2022-09-04T00:13:57.504Z,18.38
2022-09-04T00:16:10.089Z,18.36
2022-09-04T00:18:16.371Z,18.33
2022-09-04T00:20:29.895Z,18.32
2022-09-04T00:22:37.264Z,18.30
2022-09-04T00:24:43.270Z,18.27
2022-09-04T00:26:52.952Z,18.25
2022-09-04T00:28:59.860Z,18.24
2022-09-04T00:31:13.712Z,18.22
2022-09-04T00:33:21.911Z,18.18
2022-09-04T00:35:31.286Z,18.15
2022-09-04T00:37:36.524Z,18.11
2022-09-04T00:39:42.478Z,18.08
2022-09-04T00:41:56.798Z,18.03
2022-09-04T00:44:21.787Z,18.00
2022-09-04T00:46:42.612Z,17.98
2022-09-04T00:49:04.050Z,17.94
2022-09-04T00:51:18.430Z,17.91
2022-09-04T00:53:37.403Z,17.87
2022-09-04T00:55:52.568Z,17.85
2022-09-04T00:58:21.672Z,17.83
2022-09-04T01:00:27.936Z,17.79
2022-09-04T01:02:39.565Z,17.77
2022-09-04T01:04:44.623Z,17.76
2022-09-04T01:06:55.124Z,17.76
2022-09-04T01:09:12.748Z,17.74
2022-09-04T01:11:19.204Z,17.72
2022-09-04T01:13:26.624Z,17.70
2022-09-04T01:15:37.446Z,17.68
2022-09-04T01:17:48.216Z,17.65
2022-09-04T01:19:59.873Z,17.63
2022-09-04T01:22:42.705Z,17.60
2022-09-04T01:25:09.669Z,17.57
2022-09-04T01:27:18.664Z,17.58
2022-09-04T01:29:28.361Z,17.55
2022-09-04T01:31:37.403Z,17.52
2022-09-04T01:33:46.184Z,17.55
2022-09-04T01:35:55.364Z,17.52
2022-09-04T01:38:04.511Z,17.50
2022-09-04T01:40:21.106Z,17.47
2022-09-04T01:42:31.795Z,17.43
2022-09-04T01:44:35.142Z,17.39
2022-09-04T01:46:47.052Z,17.37
2022-09-04T01:48:55.683Z,17.35
2022-09-04T01:51:04.324Z,17.33
2022-09-04T01:53:11.842Z,17.31
2022-09-04T01:55:20.960Z,17.30
2022-09-04T01:57:40.897Z,17.28
2022-09-04T01:59:54.294Z,17.26
2022-09-04T02:02:03.273Z,17.23
2022-09-04T02:04:15.031Z,17.23
2022-09-04T02:06:27.690Z,17.20
2022-09-04T02:08:43.135Z,17.19
2022-09-04T02:10:52.074Z,17.18
2022-09-04T02:13:07.161Z,17.16
2022-09-04T02:15:13.830Z,17.14
2022-09-04T02:17:21.318Z,17.10
2022-09-04T02:19:36.059Z,17.06
2022-09-04T02:21:43.341Z,17.04
2022-09-04T02:23:52.157Z,17.02
2022-09-04T02:26:00.743Z,17.02
2022-09-04T02:28:17.107Z,17.01
2022-09-04T02:30:21.202Z,17.02
2022-09-04T02:32:29.104Z,17.00
2022-09-04T02:34:40.409Z,16.98
2022-09-04T02:36:50.193Z,16.96
2022-09-04T02:39:01.099Z,16.92
2022-09-04T02:41:11.687Z,16.90
2022-09-04T02:43:39.582Z,16.89
2022-09-04T02:45:47.036Z,16.85
2022-09-04T02:47:54.831Z,16.84
2022-09-04T02:50:03.358Z,16.84
2022-09-04T02:52:16.326Z,16.82
2022-09-04T02:54:31.139Z,16.82
2022-09-04T02:56:42.030Z,16.84
2022-09-04T02:59:02.566Z,16.82
2022-09-04T03:01:11.534Z,16.80
2022-09-04T03:03:18.566Z,16.80
2022-09-04T03:05:24.491Z,16.77
2022-09-04T03:07:31.614Z,16.74
2022-09-04T03:09:40.925Z,16.71
2022-09-04T03:11:47.412Z,16.68
2022-09-04T03:13:57.731Z,16.65
2022-09-04T03:16:06.589Z,16.63
2022-09-04T03:18:17.042Z,16.61
2022-09-04T03:20:23.725Z,16.61
2022-09-04T03:22:29.976Z,16.58
2022-09-04T03:24:37.401Z,16.58
2022-09-04T03:26:42.619Z,16.55
2022-09-04T03:29:00.105Z,16.54
2022-09-04T03:31:17.903Z,16.51
2022-09-04T03:33:24.969Z,16.50
2022-09-04T03:35:32.930Z,16.49
2022-09-04T03:37:48.308Z,16.45
2022-09-04T03:40:01.578Z,16.44
2022-09-04T03:42:09.025Z,16.40
2022-09-04T03:44:23.100Z,16.37
2022-09-04T03:46:36.273Z,16.36
2022-09-04T03:48:52.783Z,16.34
2022-09-04T03:50:58.878Z,16.32
2022-09-04T03:53:07.124Z,16.30
2022-09-04T03:55:33.500Z,16.27
2022-09-04T03:57:45.982Z,16.27
2022-09-04T04:00:04.708Z,16.25
2022-09-04T04:02:27.246Z,16.26
2022-09-04T04:05:27.354Z,16.23
2022-09-04T04:07:35.626Z,16.18
2022-09-04T04:10:00.678Z,16.12
2022-09-04T04:12:19.040Z,16.09
2022-09-04T04:14:51.385Z,16.05
2022-09-04T04:17:06.851Z,16.05
2022-09-04T04:19:26.282Z,16.03
2022-09-04T04:21:36.421Z,16.04
2022-09-04T04:23:58.043Z,16.03
2022-09-04T04:26:09.733Z,16.02
2022-09-04T04:28:25.475Z,16.03
2022-09-04T04:30:35.071Z,16.02
2022-09-04T04:32:55.995Z,16.02
2022-09-04T04:35:11.310Z,16.02
2022-09-04T04:37:21.316Z,16.04
2022-09-04T04:39:31.822Z,16.03
2022-09-04T04:42:00.205Z,16.02
2022-09-04T04:44:10.265Z,16.00
2022-09-04T04:46:19.289Z,15.99
2022-09-04T04:48:57.273Z,15.99
2022-09-04T04:51:10.060Z,15.98
2022-09-04T04:53:18.003Z,15.98
2022-09-04T04:55:31.314Z,15.97
2022-09-04T04:57:42.317Z,15.94
2022-09-04T04:59:54.895Z,15.92
2022-09-04T05:02:04.804Z,15.94
2022-09-04T05:04:18.883Z,15.98
2022-09-04T05:06:27.527Z,16.07
2022-09-04T05:08:38.204Z,16.16
2022-09-04T05:10:44.621Z,16.27
2022-09-04T05:12:55.760Z,16.38
2022-09-04T05:15:03.247Z,16.49
2022-09-04T05:17:18.652Z,16.60
2022-09-04T05:19:28.103Z,16.73
2022-09-04T05:21:37.446Z,16.85
2022-09-04T05:23:47.312Z,16.96
2022-09-04T05:25:55.061Z,17.09
2022-09-04T05:28:04.551Z,17.22
2022-09-04T05:30:12.140Z,17.35
2022-09-04T05:32:22.086Z,17.46
2022-09-04T05:34:35.074Z,17.58
2022-09-04T05:36:47.125Z,17.72
2022-09-04T05:38:58.465Z,17.87
2022-09-04T05:41:06.744Z,17.95
2022-09-04T05:43:20.460Z,18.03
2022-09-04T05:45:26.049Z,18.07
2022-09-04T05:47:35.459Z,18.12
2022-09-04T05:49:59.425Z,18.16
2022-09-04T05:52:17.287Z,18.30
2022-09-04T05:54:46.996Z,18.48
2022-09-04T05:57:22.638Z,18.68
2022-09-04T05:59:44.197Z,18.84
2022-09-04T06:02:02.507Z,18.97
2022-09-04T06:04:49.013Z,19.10
2022-09-04T06:06:59.111Z,19.26
2022-09-04T06:09:29.582Z,19.40
2022-09-04T06:11:51.509Z,19.56
2022-09-04T06:14:06.363Z,19.69
2022-09-04T06:16:22.103Z,19.78
2022-09-04T06:18:43.686Z,19.95
2022-09-04T06:21:01.995Z,20.10
2022-09-04T06:23:21.956Z,20.25
2022-09-04T06:25:49.859Z,20.40
2022-09-04T06:28:09.545Z,20.57
2022-09-04T06:30:13.793Z,20.77
2022-09-04T06:32:35.430Z,20.89
2022-09-04T06:34:56.247Z,21.05
2022-09-04T06:37:11.366Z,21.20
2022-09-04T06:39:31.599Z,21.36
2022-09-04T06:41:46.257Z,21.46
2022-09-04T06:43:59.779Z,21.57
2022-09-04T06:46:12.019Z,21.69
2022-09-04T06:48:27.499Z,21.82
2022-09-04T06:50:37.991Z,21.99
2022-09-04T06:52:48.725Z,22.10
2022-09-04T06:57:15.303Z,22.37
2022-09-04T06:59:54.553Z,22.42
2022-09-04T07:02:06.985Z,22.70
2022-09-04T07:04:25.098Z,22.86
2022-09-04T07:06:44.943Z,23.00
2022-09-04T07:08:58.287Z,23.17
2022-09-04T07:11:10.130Z,23.40
2022-09-04T07:13:37.073Z,23.49
2022-09-04T07:15:53.174Z,23.51
2022-09-04T07:18:04.251Z,23.67
2022-09-04T07:20:14.534Z,23.90
2022-09-04T07:22:29.516Z,24.12
2022-09-04T07:24:46.035Z,24.29
2022-09-04T07:26:52.947Z,24.49
2022-09-04T07:29:09.981Z,24.60
2022-09-04T07:31:17.203Z,24.73
2022-09-04T07:33:26.012Z,24.97
2022-09-04T07:35:34.353Z,25.11
2022-09-04T07:37:44.289Z,25.13
2022-09-04T07:39:55.226Z,25.20
2022-09-04T07:42:02.814Z,25.44
2022-09-04T07:44:11.035Z,25.49
2022-09-04T07:46:20.455Z,25.52
2022-09-04T07:48:30.203Z,25.67
2022-09-04T07:50:36.498Z,25.70
2022-09-04T07:52:56.931Z,25.80
2022-09-04T07:55:13.907Z,25.87
2022-09-04T07:57:38.981Z,25.91
2022-09-04T08:00:07.410Z,26.05
2022-09-04T08:02:27.106Z,26.10
2022-09-04T08:04:51.020Z,26.15
2022-09-04T08:06:58.069Z,26.21
2022-09-04T08:09:17.345Z,26.32
2022-09-04T08:11:35.055Z,26.42
2022-09-04T08:14:25.683Z,26.56
2022-09-04T08:16:32.039Z,26.61
2022-09-04T08:19:01.537Z,26.64
2022-09-04T08:21:16.317Z,26.76
2022-09-04T08:23:29.470Z,26.80
2022-09-04T08:25:49.639Z,26.91
2022-09-04T08:28:17.413Z,26.88
2022-09-04T08:30:21.143Z,26.92
2022-09-04T08:32:45.756Z,26.91
2022-09-04T08:35:05.612Z,26.95
2022-09-04T08:37:20.848Z,26.99
2022-09-04T08:39:33.157Z,27.17
2022-09-04T08:42:02.300Z,27.22
2022-09-04T08:44:34.528Z,27.31
2022-09-04T08:47:28.321Z,27.29
2022-09-04T08:49:56.127Z,27.23
2022-09-04T08:52:23.668Z,26.82
2022-09-04T08:54:49.602Z,26.34
2022-09-04T08:57:25.700Z,25.98
2022-09-04T09:00:06.710Z,26.20
2022-09-04T09:02:36.521Z,25.98
2022-09-04T09:05:19.198Z,25.77
2022-09-04T09:08:02.185Z,25.88
2022-09-04T09:10:39.869Z,26.24
2022-09-04T09:13:21.730Z,26.77
2022-09-04T09:15:44.691Z,27.11
2022-09-04T09:18:01.471Z,27.43
2022-09-04T09:20:20.159Z,27.55
2022-09-04T09:22:46.392Z,27.63
2022-09-04T09:25:20.739Z,27.89
2022-09-04T09:27:51.651Z,27.99
2022-09-04T09:30:05.309Z,27.50
2022-09-04T09:32:34.282Z,27.14
2022-09-04T09:35:08.620Z,27.37
2022-09-04T09:37:35.186Z,27.63
2022-09-04T09:40:04.231Z,27.99
2022-09-04T09:42:41.851Z,28.22
2022-09-04T09:45:07.117Z,28.36
2022-09-04T09:47:37.347Z,28.59
2022-09-04T09:50:04.534Z,28.73
2022-09-04T09:52:29.621Z,28.64
2022-09-04T09:55:09.388Z,28.56
2022-09-04T09:57:49.925Z,28.45
2022-09-04T10:00:09.947Z,28.10
2022-09-04T10:02:58.396Z,27.56
2022-09-04T10:06:01.428Z,27.54
2022-09-04T10:08:35.630Z,27.52
2022-09-04T10:11:13.466Z,27.55
2022-09-04T10:13:37.919Z,27.45
2022-09-04T10:16:01.234Z,27.39
2022-09-04T10:18:33.773Z,27.40
2022-09-04T10:20:55.422Z,27.50
2022-09-04T10:23:15.398Z,27.24
2022-09-04T10:25:54.994Z,27.32
2022-09-04T10:28:26.023Z,27.09
2022-09-04T10:30:31.192Z,26.86
2022-09-04T10:33:09.227Z,26.68
2022-09-04T10:35:25.416Z,26.65
2022-09-04T10:37:38.903Z,26.64
2022-09-04T10:40:09.881Z,26.52
2022-09-04T10:42:27.664Z,26.37
2022-09-04T10:44:54.760Z,26.29
2022-09-04T10:47:06.387Z,26.28
2022-09-04T10:49:43.129Z,26.53
2022-09-04T10:52:17.232Z,26.84
2022-09-04T10:54:45.036Z,27.06
2022-09-04T10:56:57.934Z,27.23
2022-09-04T10:59:16.069Z,27.37
2022-09-04T11:01:59.025Z,27.59
2022-09-04T11:04:38.124Z,27.75
2022-09-04T11:07:01.219Z,27.93
2022-09-04T11:09:21.369Z,28.04
2022-09-04T11:11:39.053Z,28.18
2022-09-04T11:14:06.621Z,28.30
2022-09-04T11:16:29.658Z,28.45
2022-09-04T11:18:53.461Z,28.47
2022-09-04T11:21:36.072Z,28.42
2022-09-04T11:23:59.910Z,28.42
2022-09-04T11:26:29.777Z,28.36
2022-09-04T11:28:46.665Z,28.12
2022-09-04T11:31:03.147Z,27.93
2022-09-04T11:33:48.812Z,27.68
2022-09-04T11:36:19.294Z,27.58
2022-09-04T11:38:43.784Z,27.77
2022-09-04T11:41:24.604Z,27.87
2022-09-04T11:43:55.300Z,27.83
2022-09-04T11:46:14.126Z,27.76
2022-09-04T11:48:43.074Z,27.39
2022-09-04T11:50:59.997Z,27.39
2022-09-04T11:53:24.727Z,27.43
2022-09-04T11:55:40.391Z,27.50
2022-09-04T11:57:53.512Z,27.49
2022-09-04T12:00:12.551Z,27.54
2022-09-04T12:02:27.944Z,27.60
2022-09-04T12:04:40.160Z,27.61
2022-09-04T12:06:55.407Z,27.61
2022-09-04T12:09:30.969Z,27.56
2022-09-04T12:12:15.339Z,27.56
2022-09-04T12:14:52.307Z,27.60
2022-09-04T12:17:32.491Z,27.61
2022-09-04T12:20:24.058Z,27.60
2022-09-04T12:23:05.387Z,27.62
2022-09-04T12:25:41.444Z,27.68
2022-09-04T12:28:26.652Z,27.69
2022-09-04T12:30:33.939Z,27.73
2022-09-04T12:33:08.334Z,27.78
2022-09-04T12:35:33.669Z,27.82
2022-09-04T12:38:03.902Z,27.81
2022-09-04T12:40:41.704Z,27.81
2022-09-04T12:42:50.035Z,27.86
2022-09-04T12:44:59.743Z,27.87
2022-09-04T12:47:13.955Z,27.89
2022-09-04T12:49:39.227Z,27.90
2022-09-04T12:51:49.283Z,27.93
2022-09-04T12:54:14.531Z,27.95
2022-09-04T12:56:27.817Z,27.96
2022-09-04T12:58:39.294Z,27.89
2022-09-04T13:00:49.616Z,27.83
2022-09-04T13:03:04.162Z,27.80
2022-09-04T13:05:17.060Z,27.87
2022-09-04T13:07:30.919Z,27.83
2022-09-04T13:09:39.609Z,27.84
2022-09-04T13:11:51.838Z,27.87
2022-09-04T13:14:04.747Z,27.81
2022-09-04T13:16:10.593Z,27.71
2022-09-04T13:18:24.842Z,27.70
2022-09-04T13:20:35.720Z,27.72
2022-09-04T13:22:49.948Z,27.76
2022-09-04T13:25:02.682Z,27.77
2022-09-04T13:27:26.458Z,27.76
2022-09-04T13:29:40.269Z,27.82
2022-09-04T13:31:54.985Z,27.91
2022-09-04T13:34:03.390Z,27.96
2022-09-04T13:36:16.434Z,27.98
2022-09-04T13:38:40.425Z,27.97
2022-09-04T13:41:04.947Z,27.99
2022-09-04T13:43:25.482Z,28.07
2022-09-04T13:45:29.907Z,28.12
2022-09-04T13:47:49.617Z,28.13
2022-09-04T13:49:57.368Z,28.16
2022-09-04T13:52:06.651Z,28.17
2022-09-04T13:54:13.283Z,28.20
2022-09-04T13:56:23.189Z,28.20
2022-09-04T13:58:29.900Z,28.20
2022-09-04T14:00:34.559Z,28.22
2022-09-04T14:02:39.184Z,28.25
2022-09-04T14:04:45.304Z,28.26
2022-09-04T14:06:49.400Z,28.21
2022-09-04T14:09:04.493Z,27.97
2022-09-04T14:11:45.313Z,27.76
2022-09-04T14:14:07.000Z,27.62
2022-09-04T14:16:11.595Z,27.63
2022-09-04T14:18:28.958Z,27.67
2022-09-04T14:20:40.561Z,27.73
2022-09-04T14:22:52.166Z,27.73
2022-09-04T14:25:06.564Z,27.69
2022-09-04T14:27:23.983Z,27.70
2022-09-04T14:29:36.141Z,27.69
2022-09-04T14:31:46.682Z,27.68
2022-09-04T14:33:57.656Z,27.69
2022-09-04T14:36:12.579Z,27.68
2022-09-04T14:38:41.232Z,27.55
2022-09-04T14:40:49.135Z,27.51
2022-09-04T14:42:58.095Z,27.52
2022-09-04T14:45:18.307Z,27.54
2022-09-04T14:47:29.863Z,27.55
2022-09-04T14:49:34.498Z,27.51
2022-09-04T14:51:39.774Z,27.53
2022-09-04T14:53:47.790Z,27.50
2022-09-04T14:56:26.384Z,27.52
2022-09-04T14:58:34.656Z,27.55
2022-09-04T15:00:57.186Z,27.56
2022-09-04T15:03:07.656Z,27.59
2022-09-04T15:05:19.662Z,27.58
2022-09-04T15:07:35.235Z,27.54
2022-09-04T15:09:41.070Z,27.41
2022-09-04T15:11:44.843Z,27.36
2022-09-04T15:13:52.791Z,27.36
2022-09-04T15:15:59.492Z,27.33
2022-09-04T15:18:11.064Z,27.31
2022-09-04T15:20:21.931Z,27.32
2022-09-04T15:22:28.276Z,27.36
2022-09-04T15:24:37.871Z,27.39
2022-09-04T15:26:46.755Z,27.40
2022-09-04T15:28:53.199Z,27.37
2022-09-04T15:31:05.626Z,27.40
2022-09-04T15:33:10.474Z,27.40
2022-09-04T15:35:22.952Z,27.37
2022-09-04T15:37:27.679Z,27.35
2022-09-04T15:39:36.952Z,27.29
2022-09-04T15:41:43.697Z,27.28
2022-09-04T15:43:49.234Z,27.30
2022-09-04T15:46:00.350Z,27.33
2022-09-04T15:48:11.229Z,27.34
2022-09-04T15:50:21.808Z,27.35
2022-09-04T15:52:31.374Z,27.35
2022-09-04T15:54:53.689Z,27.33
2022-09-04T15:57:01.137Z,27.33
2022-09-04T15:59:12.134Z,27.34
2022-09-04T16:01:18.334Z,27.34
2022-09-04T16:03:27.498Z,27.32
2022-09-04T16:05:35.350Z,27.31
2022-09-04T16:07:46.693Z,27.27
2022-09-04T16:09:55.744Z,27.26
2022-09-04T16:12:06.170Z,27.24
2022-09-04T16:14:17.254Z,27.21
2022-09-04T16:16:24.661Z,27.18
2022-09-04T16:18:40.202Z,27.13
2022-09-04T16:20:51.299Z,27.12
2022-09-04T16:22:58.431Z,27.12
2022-09-04T16:25:08.870Z,27.12
2022-09-04T16:27:15.034Z,27.13
2022-09-04T16:29:29.645Z,27.11
2022-09-04T16:31:36.010Z,27.10
2022-09-04T16:33:47.087Z,27.09
2022-09-04T16:35:51.077Z,27.06
2022-09-04T16:37:58.551Z,27.04
2022-09-04T16:40:11.842Z,27.03
2022-09-04T16:42:21.996Z,27.00
2022-09-04T16:44:28.001Z,27.00
2022-09-04T16:46:32.502Z,26.98
2022-09-04T16:48:43.391Z,26.96
2022-09-04T16:50:52.049Z,26.95
2022-09-04T16:53:14.329Z,26.93
2022-09-04T16:55:24.777Z,26.91
2022-09-04T16:57:29.934Z,26.89
2022-09-04T16:59:39.334Z,26.87
2022-09-04T17:01:45.087Z,26.86
2022-09-04T17:04:13.922Z,26.84
2022-09-04T17:06:22.713Z,26.85
2022-09-04T17:08:31.233Z,26.85
2022-09-04T17:10:42.370Z,26.85
2022-09-04T17:12:52.560Z,26.84
2022-09-04T17:15:00.655Z,26.80
2022-09-04T17:17:08.972Z,26.76
2022-09-04T17:19:33.007Z,26.69
2022-09-04T17:28:56.903Z,26.68
2022-09-04T17:29:00.733Z,26.61
2022-09-04T17:29:11.130Z,26.55
2022-09-04T17:29:48.083Z,26.50
2022-09-04T17:31:54.394Z,26.47
2022-09-04T17:38:28.356Z,26.43
2022-09-04T17:40:54.446Z,26.33
2022-09-04T17:41:31.276Z,26.24
2022-09-04T17:41:38.209Z,26.15
2022-09-04T17:44:03.055Z,26.06
2022-09-04T17:46:17.137Z,25.98
2022-09-04T17:48:24.113Z,25.91
2022-09-04T17:50:28.119Z,25.84
2022-09-04T17:52:53.822Z,25.76
2022-09-04T17:55:04.286Z,25.68
2022-09-04T17:57:12.951Z,25.63
2022-09-04T17:59:21.868Z,25.57
2022-09-04T18:01:29.975Z,25.52
2022-09-04T18:03:36.271Z,25.45
2022-09-04T18:05:49.190Z,25.38
2022-09-04T18:08:09.653Z,25.29
2022-09-04T18:10:20.404Z,25.23
2022-09-04T18:12:31.310Z,25.18
2022-09-04T18:14:39.529Z,25.13
2022-09-04T18:17:12.774Z,25.09
2022-09-04T18:19:18.625Z,25.02
2022-09-04T18:21:26.634Z,24.97
2022-09-04T18:23:51.216Z,24.93
2022-09-04T18:25:59.265Z,24.87
2022-09-04T18:28:12.478Z,24.81
2022-09-04T18:33:17.978Z,24.74
2022-09-04T18:37:16.736Z,24.67
2022-09-04T18:37:24.926Z,24.61
2022-09-04T18:37:47.696Z,24.54
2022-09-04T18:40:04.895Z,24.48
2022-09-04T18:50:30.250Z,24.40
2022-09-04T18:50:35.126Z,24.19
2022-09-04T18:50:35.598Z,24.33
2022-09-04T18:50:36.801Z,24.27
2022-09-04T18:52:07.206Z,24.12
2022-09-04T18:54:12.839Z,24.09
2022-09-04T18:56:20.782Z,24.03
2022-09-04T18:58:41.553Z,24.00
2022-09-04T19:00:49.385Z,23.98
2022-09-04T19:02:56.678Z,23.95
2022-09-04T19:05:01.564Z,23.91
2022-09-04T19:07:08.178Z,23.87
2022-09-04T19:09:14.784Z,23.80
2022-09-04T19:11:23.744Z,23.76
2022-09-04T19:13:30.123Z,23.69
2022-09-04T19:15:45.629Z,23.63
2022-09-04T19:17:55.356Z,23.55
2022-09-04T19:20:02.624Z,23.48
2022-09-04T19:22:12.824Z,23.42
2022-09-04T19:24:24.996Z,23.34
2022-09-04T19:26:41.342Z,23.28
2022-09-04T19:28:53.186Z,23.22
2022-09-04T19:30:59.538Z,23.14
2022-09-04T19:33:07.229Z,23.05
2022-09-04T19:35:17.119Z,22.98
2022-09-04T19:40:21.585Z,22.92
2022-09-04T19:46:01.660Z,22.85
2022-09-04T19:46:05.991Z,22.75
2022-09-04T19:46:16.321Z,22.67
2022-09-04T19:47:28.989Z,22.58
2022-09-04T19:53:22.751Z,22.51
2022-09-04T19:53:31.151Z,22.44
2022-09-04T19:54:36.317Z,22.40
2022-09-04T19:57:30.918Z,22.33
2022-09-04T19:59:18.887Z,22.29
2022-09-04T20:01:25.092Z,22.25
2022-09-04T20:03:32.678Z,22.20
2022-09-04T20:05:40.328Z,22.16
2022-09-04T20:07:49.268Z,22.09
2022-09-04T20:09:55.979Z,22.03
2022-09-04T20:12:03.986Z,21.97
2022-09-04T20:14:15.036Z,21.91
2022-09-04T20:16:22.574Z,21.86
2022-09-04T20:18:29.145Z,21.81
2022-09-04T20:20:36.072Z,21.77
2022-09-04T20:22:49.429Z,21.73
2022-09-04T20:25:01.902Z,21.67
2022-09-04T20:27:10.350Z,21.62
2022-09-04T20:29:19.238Z,21.58
2022-09-04T20:31:45.122Z,21.55
2022-09-04T20:33:49.472Z,21.52
2022-09-04T20:35:55.561Z,21.43
2022-09-04T20:38:00.069Z,21.39
2022-09-04T20:40:12.630Z,21.32
2022-09-04T20:42:22.402Z,21.26
2022-09-04T20:44:32.366Z,21.19
2022-09-04T20:52:40.875Z,21.14
2022-09-04T20:52:53.305Z,21.10
2022-09-04T20:52:59.378Z,21.04
2022-09-04T20:54:29.664Z,20.94
2022-09-04T20:58:32.257Z,20.92
2022-09-04T21:03:15.015Z,20.87
2022-09-04T21:03:17.613Z,20.83
2022-09-04T21:04:11.611Z,20.79
2022-09-04T21:06:27.148Z,20.76
2022-09-04T21:08:34.221Z,20.71
2022-09-04T21:10:39.209Z,20.65
2022-09-04T21:12:47.013Z,20.60
2022-09-04T21:14:55.755Z,20.59
2022-09-04T21:17:35.171Z,20.53
2022-09-04T21:20:01.860Z,20.49
2022-09-04T21:22:32.381Z,20.45
2022-09-04T21:24:51.367Z,20.41
2022-09-04T21:27:35.448Z,20.36
2022-09-04T21:29:50.544Z,20.32
2022-09-04T21:32:29.956Z,20.30
2022-09-04T21:34:55.094Z,20.26
2022-09-04T21:37:02.131Z,20.22
2022-09-04T21:39:36.988Z,20.18
2022-09-04T21:41:51.739Z,20.13
2022-09-04T21:44:17.112Z,20.09
2022-09-04T21:46:36.602Z,20.06
2022-09-04T21:48:55.722Z,20.02
2022-09-04T21:51:28.304Z,19.95
2022-09-04T21:54:02.904Z,19.91
2022-09-04T22:02:27.554Z,19.84
2022-09-04T22:02:36.343Z,19.80
2022-09-04T22:02:41.527Z,19.74
2022-09-04T22:04:14.438Z,19.64
2022-09-04T22:07:36.271Z,19.60
2022-09-04T22:13:27.693Z,19.56
2022-09-04T22:13:33.615Z,19.53
2022-09-04T22:14:05.381Z,19.49
2022-09-04T22:16:17.905Z,19.43
2022-09-04T22:18:39.242Z,19.37
2022-09-04T22:20:55.336Z,19.33
2022-09-04T22:23:39.699Z,19.31
2022-09-04T22:25:48.416Z,19.27
2022-09-04T22:28:25.703Z,19.25
2022-09-04T22:30:31.118Z,19.23
2022-09-04T22:33:02.426Z,19.20
2022-09-04T22:35:36.605Z,19.16
2022-09-04T22:38:16.398Z,19.11
2022-09-04T22:40:28.222Z,19.07
2022-09-04T22:42:52.336Z,19.02
2022-09-04T22:45:15.070Z,18.99
2022-09-04T22:47:32.111Z,18.96
2022-09-04T22:49:49.251Z,18.94
2022-09-04T22:52:21.986Z,18.94
2022-09-04T22:54:32.687Z,18.92
2022-09-04T22:56:45.634Z,18.90
2022-09-04T22:59:26.751Z,18.85
2022-09-04T23:01:49.101Z,18.82
2022-09-04T23:04:04.988Z,18.80
2022-09-04T23:08:16.289Z,18.79
2022-09-04T23:13:48.522Z,18.77
2022-09-04T23:14:01.020Z,18.72
2022-09-04T23:14:23.219Z,18.70
2022-09-04T23:16:38.194Z,18.69
2022-09-04T23:26:32.480Z,18.68
2022-09-04T23:26:39.093Z,18.65
2022-09-04T23:26:49.026Z,18.64
2022-09-04T23:27:29.783Z,18.60
2022-09-04T23:29:47.961Z,18.56
2022-09-04T23:32:07.281Z,18.54
2022-09-04T23:34:44.037Z,18.49
2022-09-04T23:37:15.438Z,18.44
2022-09-04T23:39:34.287Z,18.42
2022-09-04T23:41:53.309Z,18.37
2022-09-04T23:44:35.905Z,18.34
2022-09-04T23:46:50.192Z,18.31
2022-09-04T23:49:18.927Z,18.27
2022-09-04T23:51:27.912Z,18.25
2022-09-04T23:53:37.022Z,18.25
2022-09-04T23:55:58.516Z,18.23
2022-09-04T23:58:25.562Z,18.21
